createdAt,value
2022-10-01T00:01:08.921Z,11.63
2022-10-01T00:06:17.166Z,11.64
2022-10-01T00:11:21.964Z,11.67
2022-10-01T00:16:26.982Z,11.73
2022-10-01T00:21:33.245Z,11.66
2022-10-01T00:26:37.647Z,11.53
2022-10-01T00:31:40.651Z,11.60
2022-10-01T00:36:45.203Z,11.62
2022-10-01T00:41:48.011Z,11.54
2022-10-01T00:46:51.340Z,11.61
2022-10-01T00:51:58.986Z,11.39
2022-10-01T00:57:04.605Z,11.42
2022-10-01T01:02:07.463Z,11.38
2022-10-01T01:07:12.762Z,11.29
2022-10-01T01:12:27.656Z,11.20
2022-10-01T01:17:36.202Z,11.33
2022-10-01T01:22:48.946Z,11.38
2022-10-01T01:28:05.376Z,11.36
2022-10-01T01:33:14.012Z,11.44
2022-10-01T01:38:21.862Z,11.34
2022-10-01T01:43:31.285Z,11.39
2022-10-01T01:48:36.376Z,11.50
2022-10-01T01:53:39.485Z,11.48
2022-10-01T01:58:44.089Z,11.41
2022-10-01T02:03:46.840Z,11.49
2022-10-01T02:08:57.284Z,11.29
2022-10-01T02:14:13.329Z,11.37
2022-10-01T02:19:24.854Z,11.46
2022-10-01T02:24:38.430Z,11.55
2022-10-01T02:29:46.107Z,11.59
2022-10-01T02:34:51.083Z,11.53
2022-10-01T02:39:56.490Z,11.56
2022-10-01T02:45:02.676Z,11.49
2022-10-01T02:50:07.559Z,11.58
2022-10-01T02:55:13.231Z,11.58
2022-10-01T03:00:21.630Z,11.58
2022-10-01T03:05:24.393Z,11.60
2022-10-01T03:10:27.133Z,11.64
2022-10-01T03:15:31.260Z,11.64
2022-10-01T03:20:34.038Z,11.61
2022-10-01T03:25:36.822Z,11.64
2022-10-01T03:30:40.904Z,11.74
2022-10-01T03:35:43.703Z,11.70
2022-10-01T03:40:46.836Z,11.78
2022-10-01T03:45:51.091Z,11.76
2022-10-01T03:50:55.597Z,11.69
2022-10-01T03:55:58.612Z,11.69
2022-10-01T04:01:03.098Z,11.69
2022-10-01T04:06:06.002Z,11.45
2022-10-01T04:11:09.318Z,11.37
2022-10-01T04:16:13.695Z,11.27
2022-10-01T04:21:16.573Z,11.09
2022-10-01T04:26:19.880Z,11.09
2022-10-01T04:31:26.949Z,10.89
2022-10-01T04:36:31.607Z,10.94
2022-10-01T04:41:34.622Z,11.01
2022-10-01T04:46:39.921Z,10.97
2022-10-01T04:51:42.766Z,10.76
2022-10-01T04:56:45.569Z,10.76
2022-10-01T05:01:49.805Z,10.83
2022-10-01T05:06:52.607Z,10.69
2022-10-01T05:11:55.721Z,10.73
2022-10-01T05:16:59.896Z,10.60
2022-10-01T05:22:02.777Z,10.55
2022-10-01T05:27:13.308Z,10.65
2022-10-01T05:32:17.779Z,10.60
2022-10-01T05:37:20.610Z,10.63
2022-10-01T05:42:23.411Z,10.64
2022-10-01T05:47:27.577Z,10.51
2022-10-01T05:52:30.870Z,10.50
2022-10-01T05:57:34.301Z,10.51
2022-10-01T06:02:41.301Z,10.53
2022-10-01T06:07:44.222Z,10.56
2022-10-01T06:12:48.485Z,10.49
2022-10-01T06:17:52.574Z,10.50
2022-10-01T06:22:57.002Z,10.48
2022-10-01T06:28:00.883Z,10.45
2022-10-01T06:33:06.959Z,10.59
2022-10-01T06:38:10.478Z,10.52
2022-10-01T06:43:13.309Z,10.56
2022-10-01T06:48:19.937Z,10.52
2022-10-01T06:53:22.761Z,10.51
2022-10-01T06:58:27.226Z,10.57
2022-10-01T07:03:32.108Z,10.55
2022-10-01T07:08:44.151Z,10.57
2022-10-01T07:13:50.042Z,10.60
2022-10-01T07:18:57.879Z,10.50
2022-10-01T07:24:00.876Z,10.52
2022-10-01T07:29:04.636Z,10.48
2022-10-01T07:34:08.978Z,10.60
2022-10-01T07:39:12.225Z,10.57
2022-10-01T07:44:15.016Z,10.69
2022-10-01T07:49:19.388Z,10.73
2022-10-01T07:54:25.292Z,10.69
2022-10-01T07:59:28.536Z,10.69
2022-10-01T08:04:50.369Z,10.69
2022-10-01T08:09:53.337Z,10.68
2022-10-01T08:14:56.824Z,10.67
2022-10-01T08:20:01.364Z,10.84
2022-10-01T08:25:04.700Z,10.82
2022-10-01T08:30:09.035Z,10.89
2022-10-01T08:35:13.523Z,10.97
2022-10-01T08:40:17.401Z,10.77
2022-10-01T08:45:26.635Z,10.98
2022-10-01T08:50:48.211Z,11.13
2022-10-01T08:55:53.047Z,10.99
2022-10-01T09:00:55.878Z,11.18
2022-10-01T09:06:11.941Z,11.05
2022-10-01T09:11:29.265Z,11.04
2022-10-01T09:16:39.200Z,11.24
2022-10-01T09:21:56.507Z,11.10
2022-10-01T09:26:59.326Z,11.23
2022-10-01T09:32:06.306Z,11.38
2022-10-01T09:37:20.130Z,11.29
2022-10-01T09:42:27.474Z,11.46
2022-10-01T09:47:34.333Z,11.66
2022-10-01T09:52:40.760Z,11.76
2022-10-01T09:57:48.693Z,11.74
2022-10-01T10:02:54.112Z,12.10
2022-10-01T10:08:01.892Z,12.41
2022-10-01T10:13:18.376Z,12.88
2022-10-01T10:18:29.029Z,13.33
2022-10-01T10:23:34.289Z,13.56
2022-10-01T10:28:44.087Z,13.51
2022-10-01T10:33:51.144Z,13.42
2022-10-01T10:38:56.825Z,13.76
2022-10-01T10:44:03.687Z,14.57
2022-10-01T10:49:14.020Z,14.69
2022-10-01T10:54:29.217Z,14.91
2022-10-01T10:59:34.255Z,15.00
2022-10-01T11:04:43.853Z,15.09
2022-10-01T11:10:05.262Z,15.26
2022-10-01T11:15:21.757Z,15.13
2022-10-01T11:20:37.025Z,15.22
2022-10-01T11:25:49.184Z,15.36
2022-10-01T11:30:59.745Z,15.41
2022-10-01T11:36:06.755Z,15.53
2022-10-01T11:41:30.676Z,15.84
2022-10-01T11:46:42.552Z,16.40
2022-10-01T11:51:53.903Z,16.84
2022-10-01T11:57:25.986Z,16.92
2022-10-01T12:02:36.727Z,17.34
2022-10-01T12:07:47.531Z,16.99
2022-10-01T12:12:57.851Z,16.90
2022-10-01T12:18:07.090Z,16.88
2022-10-01T12:23:17.876Z,16.63
2022-10-01T12:28:27.694Z,16.68
2022-10-01T12:33:48.994Z,17.40
2022-10-01T12:39:05.923Z,17.02
2022-10-01T12:44:30.061Z,16.28
2022-10-01T12:49:38.374Z,16.11
2022-10-01T12:55:02.559Z,15.94
2022-10-01T13:00:12.373Z,15.79
2022-10-01T13:05:23.951Z,15.14
2022-10-01T13:10:48.729Z,14.96
2022-10-01T13:15:59.788Z,14.77
2022-10-01T13:21:10.211Z,14.18
2022-10-01T13:26:18.290Z,13.62
2022-10-01T13:31:35.040Z,13.54
2022-10-01T13:36:38.347Z,13.25
2022-10-01T13:41:41.361Z,13.36
2022-10-01T13:46:53.169Z,13.07
2022-10-01T13:51:56.940Z,13.39
2022-10-01T13:57:09.131Z,13.29
2022-10-01T14:02:32.027Z,13.29
2022-10-01T14:07:40.303Z,13.32
2022-10-01T14:13:03.640Z,13.11
2022-10-01T14:18:15.525Z,13.28
2022-10-01T14:23:24.588Z,13.37
2022-10-01T14:28:38.200Z,13.55
2022-10-01T14:33:59.775Z,13.27
2022-10-01T14:39:14.160Z,13.46
2022-10-01T14:44:21.892Z,13.35
2022-10-01T14:49:28.396Z,13.36
2022-10-01T14:54:35.778Z,13.36
2022-10-01T14:59:41.714Z,13.35
2022-10-01T15:04:48.256Z,13.55
2022-10-01T15:09:52.353Z,13.54
2022-10-01T15:14:55.774Z,13.76
2022-10-01T15:20:00.270Z,13.94
2022-10-01T15:25:03.510Z,13.94
2022-10-01T15:30:14.775Z,13.94
2022-10-01T15:35:22.033Z,13.98
2022-10-01T15:40:29.533Z,14.23
2022-10-01T15:45:32.313Z,14.57
2022-10-01T15:50:39.158Z,14.38
2022-10-01T15:55:44.466Z,14.27
2022-10-01T16:00:58.570Z,14.17
2022-10-01T16:06:04.038Z,14.04
2022-10-01T16:11:17.820Z,13.93
2022-10-01T16:16:27.183Z,13.69
2022-10-01T16:21:41.252Z,13.65
2022-10-01T16:26:45.187Z,13.39
2022-10-01T16:31:48.128Z,13.37
2022-10-01T16:36:52.340Z,13.31
2022-10-01T16:42:19.118Z,13.36
2022-10-01T16:47:17.966Z,13.22
2022-10-01T16:52:22.162Z,13.09
2022-10-01T16:57:24.846Z,12.94
2022-10-01T17:02:27.731Z,12.87
2022-10-01T17:07:31.844Z,12.81
2022-10-01T17:12:34.870Z,12.89
2022-10-01T17:17:37.692Z,12.63
2022-10-01T17:22:42.840Z,12.63
2022-10-01T17:27:45.792Z,12.55
2022-10-01T17:32:48.650Z,12.48
2022-10-01T17:37:52.847Z,12.42
2022-10-01T17:42:55.581Z,12.42
2022-10-01T17:47:58.319Z,12.39
2022-10-01T17:53:02.719Z,12.45
2022-10-01T17:58:06.723Z,12.64
2022-10-01T18:03:09.782Z,12.67
2022-10-01T18:08:13.910Z,12.69
2022-10-01T18:13:16.935Z,12.46
2022-10-01T18:19:51.342Z,12.64
2022-10-01T18:23:44.029Z,12.53
2022-10-01T18:28:47.196Z,12.58
2022-10-01T18:33:52.321Z,12.62
2022-10-01T18:39:04.275Z,12.52
2022-10-01T18:44:11.285Z,12.42
2022-10-01T18:49:28.098Z,12.27
2022-10-01T18:54:47.299Z,12.29
2022-10-01T19:00:02.541Z,12.20
2022-10-01T19:05:36.424Z,12.21
2022-10-01T19:10:43.034Z,12.31
2022-10-01T19:16:00.498Z,12.26
2022-10-01T19:21:15.195Z,12.23
2022-10-01T19:26:24.902Z,12.17
2022-10-01T19:31:37.310Z,12.25
2022-10-01T19:36:45.301Z,12.03
2022-10-01T19:41:54.247Z,11.96
2022-10-01T19:47:03.089Z,11.77
2022-10-01T19:52:13.336Z,11.90
2022-10-01T19:57:23.402Z,11.83
2022-10-01T20:02:35.147Z,11.67
2022-10-01T20:07:46.780Z,11.67
2022-10-01T20:13:13.556Z,11.64
2022-10-01T20:18:28.961Z,11.48
2022-10-01T20:23:42.025Z,11.47
2022-10-01T20:28:54.579Z,11.46
2022-10-01T20:34:03.863Z,11.36
2022-10-01T20:39:15.765Z,11.40
2022-10-01T20:44:25.615Z,11.34
2022-10-01T20:49:33.485Z,11.41
2022-10-01T20:54:40.033Z,11.31
2022-10-01T20:59:46.932Z,11.41
2022-10-01T21:04:55.219Z,11.31
2022-10-01T21:10:03.053Z,11.43
2022-10-01T21:15:13.458Z,11.34
2022-10-01T21:20:30.530Z,11.24
2022-10-01T21:25:47.311Z,11.18
2022-10-01T21:31:02.958Z,11.14
2022-10-01T21:36:11.907Z,11.20
2022-10-01T21:41:48.188Z,11.35
2022-10-01T21:47:00.751Z,11.33
2022-10-01T21:52:13.838Z,11.22
2022-10-01T21:57:43.282Z,11.22
2022-10-01T22:02:59.956Z,11.46
2022-10-01T22:08:16.080Z,11.68
2022-10-01T22:13:21.785Z,11.63
2022-10-01T22:18:35.247Z,11.64
2022-10-01T22:23:39.219Z,11.71
2022-10-01T22:28:45.006Z,11.79
2022-10-01T22:33:55.341Z,11.94
2022-10-01T22:39:03.261Z,11.87
2022-10-01T22:44:13.740Z,11.86
2022-10-01T22:49:32.175Z,11.66
2022-10-01T22:54:45.246Z,11.58
2022-10-01T23:00:01.838Z,11.48
2022-10-01T23:05:16.785Z,11.60
2022-10-01T23:10:26.102Z,11.46
2022-10-01T23:15:37.301Z,11.48
2022-10-01T23:20:50.706Z,11.35
2022-10-01T23:26:08.609Z,11.25
2022-10-01T23:31:21.758Z,11.22
2022-10-01T23:36:36.442Z,11.15
2022-10-01T23:41:44.839Z,11.11
2022-10-01T23:46:52.124Z,11.13
2022-10-01T23:52:04.357Z,11.04
2022-10-01T23:57:12.624Z,11.03
